sensor_id;sensor_type;location;lat;lon;timestamp;pressure;altitude;pressure_sealevel;temperature;humidity
3250;BME280;1637;42.020;23.992;2024-02-21T00:02:09;93344.31;;;2.70;88.79
3250;BME280;1637;42.020;23.992;2024-02-21T00:04:36;93345.81;;;2.84;88.24
3250;BME280;1637;42.020;23.992;2024-02-21T00:07:04;93350.63;;;2.66;88.94
3250;BME280;1637;42.020;23.992;2024-02-21T00:09:30;93339.56;;;2.48;89.55
3250;BME280;1637;42.020;23.992;2024-02-21T00:11:57;93337.88;;;2.56;89.39
3250;BME280;1637;42.020;23.992;2024-02-21T00:14:25;93338.63;;;2.56;89.42
3250;BME280;1637;42.020;23.992;2024-02-21T00:16:53;93334.31;;;2.64;89.33
3250;BME280;1637;42.020;23.992;2024-02-21T00:19:19;93334.75;;;2.66;90.09
3250;BME280;1637;42.020;23.992;2024-02-21T00:21:46;93332.16;;;2.97;88.73
3250;BME280;1637;42.020;23.992;2024-02-21T00:24:13;93340.63;;;3.03;87.97
3250;BME280;1637;42.020;23.992;2024-02-21T00:26:40;93337.66;;;3.04;88.00
3250;BME280;1637;42.020;23.992;2024-02-21T00:29:06;93335.66;;;2.86;88.58
3250;BME280;1637;42.020;23.992;2024-02-21T00:31:33;93323.69;;;2.92;89.02
3250;BME280;1637;42.020;23.992;2024-02-21T00:34:01;93330.38;;;2.86;88.92
3250;BME280;1637;42.020;23.992;2024-02-21T00:36:28;93327.75;;;2.73;89.10
3250;BME280;1637;42.020;23.992;2024-02-21T00:38:55;93323.09;;;2.83;89.29
3250;BME280;1637;42.020;23.992;2024-02-21T00:41:21;93320.56;;;2.86;89.48
3250;BME280;1637;42.020;23.992;2024-02-21T00:43:48;93317.81;;;2.83;90.20
3250;BME280;1637;42.020;23.992;2024-02-21T00:46:15;93311.06;;;2.69;90.41
3250;BME280;1637;42.020;23.992;2024-02-21T00:48:42;93320.16;;;2.72;90.80
3250;BME280;1637;42.020;23.992;2024-02-21T00:51:10;93320.56;;;2.86;90.69
3250;BME280;1637;42.020;23.992;2024-02-21T00:53:37;93192.28;;;2.05;90.50
3250;BME280;1637;42.020;23.992;2024-02-21T00:56:04;93291.91;;;2.60;91.54
3250;BME280;1637;42.020;23.992;2024-02-21T00:58:31;93319.19;;;2.92;91.36
3250;BME280;1637;42.020;23.992;2024-02-21T01:00:58;93310.75;;;2.87;89.21
3250;BME280;1637;42.020;23.992;2024-02-21T01:03:25;93307.91;;;2.95;89.32
3250;BME280;1637;42.020;23.992;2024-02-21T01:05:51;93304.09;;;3.24;88.19
3250;BME280;1637;42.020;23.992;2024-02-21T01:08:20;93304.69;;;3.33;87.25
3250;BME280;1637;42.020;23.992;2024-02-21T01:10:46;93302.72;;;3.15;87.48
3250;BME280;1637;42.020;23.992;2024-02-21T01:13:13;93300.94;;;3.19;87.68
3250;BME280;1637;42.020;23.992;2024-02-21T01:15:40;93300.88;;;3.31;87.57
3250;BME280;1637;42.020;23.992;2024-02-21T01:18:06;93282.94;;;3.08;88.13
3250;BME280;1637;42.020;23.992;2024-02-21T01:20:33;93305.38;;;3.30;87.19
3250;BME280;1637;42.020;23.992;2024-02-21T01:23:00;93195.28;;;2.47;88.42
3250;BME280;1637;42.020;23.992;2024-02-21T01:25:28;93301.78;;;3.38;87.91
3250;BME280;1637;42.020;23.992;2024-02-21T01:27:55;93298.19;;;3.15;88.06
3250;BME280;1637;42.020;23.992;2024-02-21T01:30:21;93293.84;;;3.07;88.29
3250;BME280;1637;42.020;23.992;2024-02-21T01:32:48;93293.84;;;3.38;87.66
3250;BME280;1637;42.020;23.992;2024-02-21T01:35:15;93277.53;;;3.36;85.90
3250;BME280;1637;42.020;23.992;2024-02-21T01:37:42;93292.78;;;3.59;86.71
3250;BME280;1637;42.020;23.992;2024-02-21T01:40:10;93289.88;;;3.64;85.13
3250;BME280;1637;42.020;23.992;2024-02-21T01:42:39;93287.06;;;3.57;84.76
3250;BME280;1637;42.020;23.992;2024-02-21T01:45:07;93282.31;;;3.47;85.77
3250;BME280;1637;42.020;23.992;2024-02-21T01:47:34;93277.28;;;3.41;86.01
3250;BME280;1637;42.020;23.992;2024-02-21T01:50:01;93271.13;;;3.37;86.14
3250;BME280;1637;42.020;23.992;2024-02-21T01:52:29;93271.47;;;3.36;85.94
3250;BME280;1637;42.020;23.992;2024-02-21T01:54:56;93251.84;;;3.21;85.88
3250;BME280;1637;42.020;23.992;2024-02-21T01:57:23;93276.19;;;3.27;86.75
3250;BME280;1637;42.020;23.992;2024-02-21T01:59:51;93270.50;;;3.60;84.56
3250;BME280;1637;42.020;23.992;2024-02-21T02:02:18;93278.88;;;3.62;83.73
3250;BME280;1637;42.020;23.992;2024-02-21T02:04:46;93279.59;;;3.78;83.56
3250;BME280;1637;42.020;23.992;2024-02-21T02:07:12;93275.34;;;3.73;83.02
3250;BME280;1637;42.020;23.992;2024-02-21T02:09:39;93274.63;;;3.41;87.29
3250;BME280;1637;42.020;23.992;2024-02-21T02:12:06;93267.41;;;3.58;87.99
3250;BME280;1637;42.020;23.992;2024-02-21T02:14:33;93238.25;;;3.38;88.46
3250;BME280;1637;42.020;23.992;2024-02-21T02:17:01;93264.88;;;3.45;90.02
3250;BME280;1637;42.020;23.992;2024-02-21T02:19:28;93264.84;;;3.61;87.21
3250;BME280;1637;42.020;23.992;2024-02-21T02:22:00;93266.22;;;3.71;84.85
3250;BME280;1637;42.020;23.992;2024-02-21T02:24:33;93277.41;;;3.64;85.67
3250;BME280;1637;42.020;23.992;2024-02-21T02:27:00;93269.97;;;3.70;84.99
3250;BME280;1637;42.020;23.992;2024-02-21T02:29:27;93272.06;;;3.45;86.19
3250;BME280;1637;42.020;23.992;2024-02-21T02:31:53;93276.41;;;3.37;87.14
3250;BME280;1637;42.020;23.992;2024-02-21T02:34:20;93267.63;;;3.33;88.04
3250;BME280;1637;42.020;23.992;2024-02-21T02:36:47;93265.47;;;3.55;86.72
3250;BME280;1637;42.020;23.992;2024-02-21T02:39:14;93269.00;;;3.27;87.36
3250;BME280;1637;42.020;23.992;2024-02-21T02:41:42;93264.66;;;3.19;87.99
3250;BME280;1637;42.020;23.992;2024-02-21T02:44:09;93266.53;;;3.19;88.18
3250;BME280;1637;42.020;23.992;2024-02-21T02:46:36;93267.22;;;3.00;89.01
3250;BME280;1637;42.020;23.992;2024-02-21T02:49:03;93263.94;;;2.59;90.76
3250;BME280;1637;42.020;23.992;2024-02-21T02:51:29;93269.13;;;2.56;91.09
3250;BME280;1637;42.020;23.992;2024-02-21T02:53:56;93268.44;;;2.59;91.54
3250;BME280;1637;42.020;23.992;2024-02-21T02:56:23;93245.00;;;2.57;91.37
3250;BME280;1637;42.020;23.992;2024-02-21T02:58:51;93246.63;;;2.62;89.84
3250;BME280;1637;42.020;23.992;2024-02-21T03:01:18;93264.91;;;2.67;90.63
3250;BME280;1637;42.020;23.992;2024-02-21T03:03:45;93272.09;;;2.54;91.82
3250;BME280;1637;42.020;23.992;2024-02-21T03:06:12;93244.41;;;2.48;91.44
3250;BME280;1637;42.020;23.992;2024-02-21T03:08:39;93276.63;;;2.54;91.68
3250;BME280;1637;42.020;23.992;2024-02-21T03:11:06;93273.25;;;2.69;90.32
3250;BME280;1637;42.020;23.992;2024-02-21T03:13:33;93264.47;;;2.65;90.72
3250;BME280;1637;42.020;23.992;2024-02-21T03:16:02;93180.91;;;2.32;90.04
3250;BME280;1637;42.020;23.992;2024-02-21T03:18:29;93279.16;;;2.94;90.28
3250;BME280;1637;42.020;23.992;2024-02-21T03:20:55;93279.31;;;2.69;91.55
3250;BME280;1637;42.020;23.992;2024-02-21T03:23:22;93278.13;;;2.83;91.25
3250;BME280;1637;42.020;23.992;2024-02-21T03:25:49;93270.00;;;2.91;90.64
3250;BME280;1637;42.020;23.992;2024-02-21T03:28:16;93276.69;;;2.69;92.35
3250;BME280;1637;42.020;23.992;2024-02-21T03:30:43;93287.66;;;2.71;91.48
3250;BME280;1637;42.020;23.992;2024-02-21T03:33:11;93273.59;;;2.83;91.05
3250;BME280;1637;42.020;23.992;2024-02-21T03:35:38;93268.41;;;2.87;91.45
3250;BME280;1637;42.020;23.992;2024-02-21T03:38:04;93255.53;;;2.85;90.14
3250;BME280;1637;42.020;23.992;2024-02-21T03:40:31;93275.16;;;3.16;88.95
3250;BME280;1637;42.020;23.992;2024-02-21T03:42:58;93285.97;;;2.95;89.56
3250;BME280;1637;42.020;23.992;2024-02-21T03:45:24;93284.63;;;3.01;89.99
3250;BME280;1637;42.020;23.992;2024-02-21T03:47:51;93289.34;;;3.23;87.32
3250;BME280;1637;42.020;23.992;2024-02-21T03:50:19;93283.44;;;3.30;86.90
3250;BME280;1637;42.020;23.992;2024-02-21T03:52:46;93287.69;;;3.34;87.15
3250;BME280;1637;42.020;23.992;2024-02-21T03:55:13;93293.19;;;3.26;86.79
3250;BME280;1637;42.020;23.992;2024-02-21T03:57:40;93281.75;;;3.06;87.81
3250;BME280;1637;42.020;23.992;2024-02-21T04:00:07;93289.81;;;2.97;89.89
3250;BME280;1637;42.020;23.992;2024-02-21T04:02:37;93276.69;;;3.01;89.07
3250;BME280;1637;42.020;23.992;2024-02-21T04:05:04;93284.47;;;3.09;89.29
3250;BME280;1637;42.020;23.992;2024-02-21T04:07:32;93288.72;;;2.98;90.15
3250;BME280;1637;42.020;23.992;2024-02-21T04:09:59;93284.00;;;2.92;90.90
3250;BME280;1637;42.020;23.992;2024-02-21T04:12:26;93283.25;;;2.91;91.05
3250;BME280;1637;42.020;23.992;2024-02-21T04:14:53;93287.59;;;2.84;91.28
3250;BME280;1637;42.020;23.992;2024-02-21T04:17:19;93280.59;;;2.75;92.20
3250;BME280;1637;42.020;23.992;2024-02-21T04:19:46;93281.25;;;2.72;91.97
3250;BME280;1637;42.020;23.992;2024-02-21T04:22:13;93248.47;;;2.46;92.30
3250;BME280;1637;42.020;23.992;2024-02-21T04:24:41;93286.63;;;2.60;93.29
3250;BME280;1637;42.020;23.992;2024-02-21T04:27:08;93286.31;;;2.78;94.10
3250;BME280;1637;42.020;23.992;2024-02-21T04:29:34;93291.19;;;2.91;93.28
3250;BME280;1637;42.020;23.992;2024-02-21T04:32:01;93290.50;;;2.94;92.25
3250;BME280;1637;42.020;23.992;2024-02-21T04:34:29;93296.06;;;2.89;92.08
3250;BME280;1637;42.020;23.992;2024-02-21T04:36:56;93271.53;;;2.61;93.42
3250;BME280;1637;42.020;23.992;2024-02-21T04:39:23;93290.34;;;2.87;92.01
3250;BME280;1637;42.020;23.992;2024-02-21T04:41:51;93293.53;;;3.08;90.34
3250;BME280;1637;42.020;23.992;2024-02-21T04:44:17;93290.69;;;3.17;88.97
3250;BME280;1637;42.020;23.992;2024-02-21T04:46:47;93294.44;;;3.00;89.90
3250;BME280;1637;42.020;23.992;2024-02-21T04:49:14;93287.59;;;2.84;90.46
3250;BME280;1637;42.020;23.992;2024-02-21T04:51:41;93287.84;;;2.94;91.79
3250;BME280;1637;42.020;23.992;2024-02-21T04:54:07;93284.81;;;3.08;91.36
3250;BME280;1637;42.020;23.992;2024-02-21T04:56:34;93275.50;;;2.98;91.39
3250;BME280;1637;42.020;23.992;2024-02-21T04:59:02;93292.84;;;3.27;90.51
3250;BME280;1637;42.020;23.992;2024-02-21T05:01:29;93294.28;;;3.25;89.88
3250;BME280;1637;42.020;23.992;2024-02-21T05:03:56;93290.44;;;3.06;90.75
3250;BME280;1637;42.020;23.992;2024-02-21T05:06:23;93297.44;;;3.30;89.69
3250;BME280;1637;42.020;23.992;2024-02-21T05:08:50;93295.97;;;3.33;89.11
3250;BME280;1637;42.020;23.992;2024-02-21T05:11:16;93295.06;;;3.25;89.72
3250;BME280;1637;42.020;23.992;2024-02-21T05:13:43;93279.09;;;2.90;90.38
3250;BME280;1637;42.020;23.992;2024-02-21T05:16:12;93294.31;;;2.65;92.08
3250;BME280;1637;42.020;23.992;2024-02-21T05:18:40;93302.56;;;2.48;93.93
3250;BME280;1637;42.020;23.992;2024-02-21T05:21:08;93300.75;;;2.52;94.24
3250;BME280;1637;42.020;23.992;2024-02-21T05:23:34;93293.88;;;2.63;93.94
3250;BME280;1637;42.020;23.992;2024-02-21T05:26:01;93264.38;;;2.77;92.95
3250;BME280;1637;42.020;23.992;2024-02-21T05:28:28;93296.03;;;2.73;91.63
3250;BME280;1637;42.020;23.992;2024-02-21T05:30:56;93293.34;;;2.30;91.89
3250;BME280;1637;42.020;23.992;2024-02-21T05:33:24;93297.50;;;2.87;92.03
3250;BME280;1637;42.020;23.992;2024-02-21T05:35:50;93298.44;;;2.79;91.45
3250;BME280;1637;42.020;23.992;2024-02-21T05:38:17;93303.66;;;2.91;91.99
3250;BME280;1637;42.020;23.992;2024-02-21T05:40:44;93307.09;;;3.07;91.93
3250;BME280;1637;42.020;23.992;2024-02-21T05:43:11;93314.78;;;3.28;91.32
3250;BME280;1637;42.020;23.992;2024-02-21T05:45:38;93310.84;;;3.37;89.82
3250;BME280;1637;42.020;23.992;2024-02-21T05:48:05;93313.75;;;3.48;88.88
3250;BME280;1637;42.020;23.992;2024-02-21T05:50:33;93320.06;;;3.43;88.14
3250;BME280;1637;42.020;23.992;2024-02-21T05:53:00;93315.03;;;3.07;91.58
3250;BME280;1637;42.020;23.992;2024-02-21T05:55:27;93324.75;;;3.34;89.77
3250;BME280;1637;42.020;23.992;2024-02-21T05:57:54;93332.28;;;3.48;88.41
3250;BME280;1637;42.020;23.992;2024-02-21T06:00:21;93315.38;;;3.21;88.63
3250;BME280;1637;42.020;23.992;2024-02-21T06:02:48;93308.53;;;3.20;86.97
3250;BME280;1637;42.020;23.992;2024-02-21T06:05:15;93333.13;;;3.36;86.95
3250;BME280;1637;42.020;23.992;2024-02-21T06:07:43;93335.03;;;3.52;87.79
3250;BME280;1637;42.020;23.992;2024-02-21T06:10:10;93336.19;;;3.38;87.26
3250;BME280;1637;42.020;23.992;2024-02-21T06:12:36;93290.94;;;3.43;85.64
3250;BME280;1637;42.020;23.992;2024-02-21T06:15:04;93348.69;;;3.69;85.55
3250;BME280;1637;42.020;23.992;2024-02-21T06:17:31;93352.25;;;3.93;84.25
3250;BME280;1637;42.020;23.992;2024-02-21T06:19:58;93351.50;;;4.11;83.97
3250;BME280;1637;42.020;23.992;2024-02-21T06:22:24;93355.16;;;4.23;83.66
3250;BME280;1637;42.020;23.992;2024-02-21T06:24:52;93359.09;;;4.48;81.58
3250;BME280;1637;42.020;23.992;2024-02-21T06:27:20;93356.16;;;4.72;81.04
3250;BME280;1637;42.020;23.992;2024-02-21T06:29:46;93362.22;;;4.92;79.74
3250;BME280;1637;42.020;23.992;2024-02-21T06:32:13;93371.72;;;5.12;78.37
3250;BME280;1637;42.020;23.992;2024-02-21T06:34:40;93369.00;;;4.90;80.28
3250;BME280;1637;42.020;23.992;2024-02-21T06:37:07;93370.53;;;4.52;82.11
3250;BME280;1637;42.020;23.992;2024-02-21T06:39:34;93265.44;;;3.70;83.50
3250;BME280;1637;42.020;23.992;2024-02-21T06:42:04;93369.97;;;4.81;81.83
3250;BME280;1637;42.020;23.992;2024-02-21T06:44:31;93376.75;;;4.60;81.53
3250;BME280;1637;42.020;23.992;2024-02-21T06:47:01;93376.53;;;4.68;81.62
3250;BME280;1637;42.020;23.992;2024-02-21T06:49:28;93378.03;;;6.18;77.46
3250;BME280;1637;42.020;23.992;2024-02-21T06:51:55;93378.81;;;6.49;74.36
3250;BME280;1637;42.020;23.992;2024-02-21T06:54:22;93372.53;;;6.08;75.15
3250;BME280;1637;42.020;23.992;2024-02-21T06:56:49;93377.09;;;5.62;76.63
3250;BME280;1637;42.020;23.992;2024-02-21T06:59:17;93383.59;;;6.10;75.30
3250;BME280;1637;42.020;23.992;2024-02-21T07:01:45;93375.03;;;5.97;72.79
3250;BME280;1637;42.020;23.992;2024-02-21T07:04:12;93387.22;;;5.98;72.60
3250;BME280;1637;42.020;23.992;2024-02-21T07:06:38;93383.66;;;6.40;71.50
3250;BME280;1637;42.020;23.992;2024-02-21T07:09:05;93384.09;;;6.75;70.82
3250;BME280;1637;42.020;23.992;2024-02-21T07:11:32;93378.59;;;7.28;68.75
3250;BME280;1637;42.020;23.992;2024-02-21T07:13:59;93382.94;;;7.84;66.45
3250;BME280;1637;42.020;23.992;2024-02-21T07:16:27;93381.22;;;7.62;67.14
3250;BME280;1637;42.020;23.992;2024-02-21T07:18:55;93297.78;;;8.12;64.68
3250;BME280;1637;42.020;23.992;2024-02-21T07:21:21;93390.78;;;10.09;60.06
3250;BME280;1637;42.020;23.992;2024-02-21T07:23:48;93394.19;;;10.73;58.72
3250;BME280;1637;42.020;23.992;2024-02-21T07:26:15;93389.63;;;10.45;57.46
3250;BME280;1637;42.020;23.992;2024-02-21T07:28:41;93093.66;;;7.46;60.32
3250;BME280;1637;42.020;23.992;2024-02-21T07:31:09;93396.06;;;9.52;61.17
3250;BME280;1637;42.020;23.992;2024-02-21T07:33:37;93378.97;;;10.38;57.03
3250;BME280;1637;42.020;23.992;2024-02-21T07:36:06;93394.25;;;11.53;55.59
3250;BME280;1637;42.020;23.992;2024-02-21T07:38:33;93393.31;;;11.05;55.25
3250;BME280;1637;42.020;23.992;2024-02-21T07:40:59;93396.31;;;12.01;53.43
3250;BME280;1637;42.020;23.992;2024-02-21T07:43:26;93393.38;;;10.83;54.39
3250;BME280;1637;42.020;23.992;2024-02-21T07:45:53;93402.53;;;12.39;53.41
3250;BME280;1637;42.020;23.992;2024-02-21T07:48:21;93428.41;;;13.42;50.37
3250;BME280;1637;42.020;23.992;2024-02-21T07:50:51;93399.25;;;12.62;50.92
3250;BME280;1637;42.020;23.992;2024-02-21T07:53:17;93402.47;;;14.13;48.64
3250;BME280;1637;42.020;23.992;2024-02-21T07:55:44;93391.78;;;14.56;47.04
3250;BME280;1637;42.020;23.992;2024-02-21T07:58:11;93396.03;;;15.20;46.19
3250;BME280;1637;42.020;23.992;2024-02-21T08:00:38;93403.97;;;15.46;45.16
3250;BME280;1637;42.020;23.992;2024-02-21T08:03:05;93401.41;;;15.20;46.71
3250;BME280;1637;42.020;23.992;2024-02-21T08:05:34;93402.34;;;15.13;46.30
3250;BME280;1637;42.020;23.992;2024-02-21T08:08:03;93392.28;;;13.97;48.97
3250;BME280;1637;42.020;23.992;2024-02-21T08:10:30;93381.78;;;14.76;47.88
3250;BME280;1637;42.020;23.992;2024-02-21T08:12:56;93373.47;;;13.05;51.69
3250;BME280;1637;42.020;23.992;2024-02-21T08:15:23;93389.38;;;14.61;49.10
3250;BME280;1637;42.020;23.992;2024-02-21T08:17:53;93394.53;;;15.58;46.88
3250;BME280;1637;42.020;23.992;2024-02-21T08:20:24;93388.78;;;14.73;47.67
3250;BME280;1637;42.020;23.992;2024-02-21T08:22:50;93392.16;;;14.77;47.57
3250;BME280;1637;42.020;23.992;2024-02-21T08:25:19;93387.88;;;13.83;49.15
3250;BME280;1637;42.020;23.992;2024-02-21T08:27:45;93391.34;;;14.81;47.65
3250;BME280;1637;42.020;23.992;2024-02-21T08:30:13;93389.41;;;13.54;49.17
3250;BME280;1637;42.020;23.992;2024-02-21T08:32:40;93387.78;;;14.14;48.43
3250;BME280;1637;42.020;23.992;2024-02-21T08:35:07;93386.44;;;14.02;48.01
3250;BME280;1637;42.020;23.992;2024-02-21T08:37:34;93388.59;;;12.89;51.25
3250;BME280;1637;42.020;23.992;2024-02-21T08:40:00;93393.47;;;13.69;49.21
3250;BME280;1637;42.020;23.992;2024-02-21T08:42:35;93362.38;;;12.66;52.21
3250;BME280;1637;42.020;23.992;2024-02-21T08:45:01;93391.03;;;14.05;50.52
3250;BME280;1637;42.020;23.992;2024-02-21T08:47:28;93410.84;;;16.07;45.28
3250;BME280;1637;42.020;23.992;2024-02-21T08:49:55;93401.72;;;15.65;45.47
3250;BME280;1637;42.020;23.992;2024-02-21T08:52:21;93397.72;;;14.47;47.47
3250;BME280;1637;42.020;23.992;2024-02-21T08:54:48;93384.47;;;13.18;51.24
3250;BME280;1637;42.020;23.992;2024-02-21T08:57:18;93373.63;;;14.09;48.36
3250;BME280;1637;42.020;23.992;2024-02-21T08:59:46;93399.84;;;13.14;50.54
3250;BME280;1637;42.020;23.992;2024-02-21T09:02:13;93161.72;;;12.83;47.96
3250;BME280;1637;42.020;23.992;2024-02-21T09:04:41;93391.50;;;14.23;48.71
3250;BME280;1637;42.020;23.992;2024-02-21T09:07:09;93366.78;;;12.83;50.83
3250;BME280;1637;42.020;23.992;2024-02-21T09:09:36;93357.97;;;11.97;52.74
3250;BME280;1637;42.020;23.992;2024-02-21T09:12:04;93389.03;;;11.25;55.02
3250;BME280;1637;42.020;23.992;2024-02-21T09:14:32;93376.59;;;10.68;55.98
3250;BME280;1637;42.020;23.992;2024-02-21T09:17:00;93383.53;;;10.09;57.56
3250;BME280;1637;42.020;23.992;2024-02-21T09:19:26;93375.50;;;9.91;58.13
3250;BME280;1637;42.020;23.992;2024-02-21T09:21:53;93374.19;;;9.18;60.46
3250;BME280;1637;42.020;23.992;2024-02-21T09:24:20;93353.66;;;9.43;60.02
3250;BME280;1637;42.020;23.992;2024-02-21T09:26:47;93359.44;;;9.74;60.00
3250;BME280;1637;42.020;23.992;2024-02-21T09:29:14;93368.63;;;10.15;58.32
3250;BME280;1637;42.020;23.992;2024-02-21T09:31:42;93365.88;;;9.58;59.51
3250;BME280;1637;42.020;23.992;2024-02-21T09:34:10;93361.91;;;8.92;61.53
3250;BME280;1637;42.020;23.992;2024-02-21T09:36:36;93375.38;;;9.24;61.91
3250;BME280;1637;42.020;23.992;2024-02-21T09:39:03;93369.72;;;9.64;59.95
3250;BME280;1637;42.020;23.992;2024-02-21T09:41:30;93371.28;;;10.19;58.17
3250;BME280;1637;42.020;23.992;2024-02-21T09:43:57;93369.25;;;10.87;56.55
3250;BME280;1637;42.020;23.992;2024-02-21T09:46:29;93366.63;;;11.63;56.11
3250;BME280;1637;42.020;23.992;2024-02-21T09:49:06;93372.81;;;10.59;57.46
3250;BME280;1637;42.020;23.992;2024-02-21T09:51:40;93354.44;;;9.47;59.58
3250;BME280;1637;42.020;23.992;2024-02-21T09:54:08;93333.41;;;9.46;59.86
3250;BME280;1637;42.020;23.992;2024-02-21T09:56:35;93374.72;;;10.51;58.96
3250;BME280;1637;42.020;23.992;2024-02-21T09:59:02;93343.75;;;9.69;58.17
3250;BME280;1637;42.020;23.992;2024-02-21T10:01:30;93367.09;;;10.11;58.76
3250;BME280;1637;42.020;23.992;2024-02-21T10:03:57;93369.38;;;10.37;57.18
3250;BME280;1637;42.020;23.992;2024-02-21T10:06:24;93364.00;;;10.48;57.36
3250;BME280;1637;42.020;23.992;2024-02-21T10:08:53;93333.00;;;10.54;55.50
3250;BME280;1637;42.020;23.992;2024-02-21T10:11:23;93360.13;;;10.66;57.06
3250;BME280;1637;42.020;23.992;2024-02-21T10:13:50;93352.94;;;9.71;58.66
3250;BME280;1637;42.020;23.992;2024-02-21T10:16:17;93351.38;;;9.59;58.73
3250;BME280;1637;42.020;23.992;2024-02-21T10:18:43;93352.94;;;10.17;58.46
3250;BME280;1637;42.020;23.992;2024-02-21T10:21:10;93353.25;;;10.69;55.51
3250;BME280;1637;42.020;23.992;2024-02-21T10:23:44;93347.03;;;10.97;55.43
3250;BME280;1637;42.020;23.992;2024-02-21T10:26:12;93304.25;;;10.68;55.21
3250;BME280;1637;42.020;23.992;2024-02-21T10:28:39;93342.72;;;11.21;54.89
3250;BME280;1637;42.020;23.992;2024-02-21T10:31:08;93337.91;;;10.77;55.04
3250;BME280;1637;42.020;23.992;2024-02-21T10:33:35;93339.13;;;10.54;55.46
3250;BME280;1637;42.020;23.992;2024-02-21T10:36:10;93325.78;;;10.12;57.07
3250;BME280;1637;42.020;23.992;2024-02-21T10:38:37;93321.09;;;10.69;55.00
3250;BME280;1637;42.020;23.992;2024-02-21T10:41:05;93263.06;;;10.23;54.96
3250;BME280;1637;42.020;23.992;2024-02-21T10:43:39;93312.91;;;11.67;53.75
3250;BME280;1637;42.020;23.992;2024-02-21T10:46:07;93298.28;;;11.20;54.12
3250;BME280;1637;42.020;23.992;2024-02-21T10:48:42;93302.94;;;11.67;53.55
3250;BME280;1637;42.020;23.992;2024-02-21T10:51:14;93291.72;;;11.28;54.31
3250;BME280;1637;42.020;23.992;2024-02-21T10:53:45;93296.53;;;12.06;53.03
3250;BME280;1637;42.020;23.992;2024-02-21T10:56:21;93287.16;;;12.62;50.34
3250;BME280;1637;42.020;23.992;2024-02-21T10:58:52;93282.84;;;13.02;49.79
3250;BME280;1637;42.020;23.992;2024-02-21T11:01:19;93279.63;;;11.61;52.10
3250;BME280;1637;42.020;23.992;2024-02-21T11:03:49;93256.31;;;10.88;53.53
3250;BME280;1637;42.020;23.992;2024-02-21T11:06:17;93265.41;;;11.64;51.87
3250;BME280;1637;42.020;23.992;2024-02-21T11:08:46;93244.56;;;11.34;53.48
3250;BME280;1637;42.020;23.992;2024-02-21T11:11:14;93270.75;;;12.53;50.61
3250;BME280;1637;42.020;23.992;2024-02-21T11:13:44;93267.66;;;12.55;49.67
3250;BME280;1637;42.020;23.992;2024-02-21T11:16:23;93268.81;;;11.68;50.25
3250;BME280;1637;42.020;23.992;2024-02-21T11:18:49;93264.25;;;11.10;52.12
3250;BME280;1637;42.020;23.992;2024-02-21T11:21:16;93255.84;;;11.04;52.38
3250;BME280;1637;42.020;23.992;2024-02-21T11:23:43;93260.53;;;11.48;51.94
3250;BME280;1637;42.020;23.992;2024-02-21T11:26:10;93263.03;;;12.21;49.46
3250;BME280;1637;42.020;23.992;2024-02-21T11:28:44;93235.75;;;11.33;50.46
3250;BME280;1637;42.020;23.992;2024-02-21T11:31:13;93264.34;;;11.54;50.27
3250;BME280;1637;42.020;23.992;2024-02-21T11:33:40;93257.31;;;11.71;50.31
3250;BME280;1637;42.020;23.992;2024-02-21T11:36:08;93227.75;;;11.26;51.70
3250;BME280;1637;42.020;23.992;2024-02-21T11:38:35;93177.03;;;10.98;51.80
3250;BME280;1637;42.020;23.992;2024-02-21T11:41:02;93257.56;;;11.87;50.59
3250;BME280;1637;42.020;23.992;2024-02-21T11:43:29;93251.13;;;11.81;48.35
3250;BME280;1637;42.020;23.992;2024-02-21T11:45:59;93246.22;;;11.65;48.56
3250;BME280;1637;42.020;23.992;2024-02-21T11:48:28;93162.56;;;11.36;47.88
3250;BME280;1637;42.020;23.992;2024-02-21T11:50:54;93229.50;;;12.33;47.07
3250;BME280;1637;42.020;23.992;2024-02-21T11:53:21;93243.22;;;12.46;45.22
3250;BME280;1637;42.020;23.992;2024-02-21T11:55:49;93163.38;;;11.75;45.24
3250;BME280;1637;42.020;23.992;2024-02-21T11:58:16;93230.69;;;11.94;45.68
3250;BME280;1637;42.020;23.992;2024-02-21T12:00:44;93215.88;;;11.76;46.55
3250;BME280;1637;42.020;23.992;2024-02-21T12:03:11;93233.38;;;11.94;45.01
3250;BME280;1637;42.020;23.992;2024-02-21T12:05:39;93236.22;;;12.52;45.65
3250;BME280;1637;42.020;23.992;2024-02-21T12:08:07;93227.53;;;12.03;45.49
3250;BME280;1637;42.020;23.992;2024-02-21T12:10:35;93230.34;;;11.89;46.13
3250;BME280;1637;42.020;23.992;2024-02-21T12:13:06;93228.25;;;12.07;44.90
3250;BME280;1637;42.020;23.992;2024-02-21T12:15:33;93222.63;;;11.94;45.70
3250;BME280;1637;42.020;23.992;2024-02-21T12:18:00;93217.41;;;11.80;45.60
3250;BME280;1637;42.020;23.992;2024-02-21T12:20:27;93214.94;;;11.48;45.36
3250;BME280;1637;42.020;23.992;2024-02-21T12:22:55;93217.13;;;11.64;45.42
3250;BME280;1637;42.020;23.992;2024-02-21T12:25:22;93230.13;;;11.65;45.87
3250;BME280;1637;42.020;23.992;2024-02-21T12:27:51;93210.13;;;11.29;46.66
3250;BME280;1637;42.020;23.992;2024-02-21T12:30:18;93203.41;;;11.55;45.44
3250;BME280;1637;42.020;23.992;2024-02-21T12:32:46;93195.81;;;11.46;46.67
3250;BME280;1637;42.020;23.992;2024-02-21T12:35:13;93207.28;;;11.50;46.44
3250;BME280;1637;42.020;23.992;2024-02-21T12:37:40;93199.63;;;11.45;45.51
3250;BME280;1637;42.020;23.992;2024-02-21T12:40:10;93191.31;;;11.32;46.63
3250;BME280;1637;42.020;23.992;2024-02-21T12:42:38;93196.44;;;11.16;46.81
3250;BME280;1637;42.020;23.992;2024-02-21T12:45:06;93179.16;;;11.21;46.74
3250;BME280;1637;42.020;23.992;2024-02-21T12:47:33;93172.09;;;10.89;47.66
3250;BME280;1637;42.020;23.992;2024-02-21T12:50:00;93186.75;;;11.29;47.10
3250;BME280;1637;42.020;23.992;2024-02-21T12:52:28;93195.19;;;11.28;46.73
3250;BME280;1637;42.020;23.992;2024-02-21T12:54:55;93166.19;;;11.12;47.09
3250;BME280;1637;42.020;23.992;2024-02-21T12:57:25;93179.09;;;11.28;46.90
3250;BME280;1637;42.020;23.992;2024-02-21T12:59:52;93182.16;;;11.30;46.93
3250;BME280;1637;42.020;23.992;2024-02-21T13:02:19;93179.78;;;11.39;47.46
3250;BME280;1637;42.020;23.992;2024-02-21T13:04:46;93180.69;;;11.22;47.92
3250;BME280;1637;42.020;23.992;2024-02-21T13:07:13;93173.91;;;11.03;49.68
3250;BME280;1637;42.020;23.992;2024-02-21T13:09:40;93170.94;;;10.94;49.42
3250;BME280;1637;42.020;23.992;2024-02-21T13:12:07;93169.25;;;11.14;48.71
3250;BME280;1637;42.020;23.992;2024-02-21T13:14:35;93160.28;;;11.35;47.45
3250;BME280;1637;42.020;23.992;2024-02-21T13:17:04;92979.00;;;10.14;47.25
3250;BME280;1637;42.020;23.992;2024-02-21T13:19:31;93166.03;;;11.33;47.97